Time;durP1;ratioP1;P1;durP2;ratioP2;P2;SDS_P1;SDS_P2;PMS_P1;PMS_P2;Temp;Humidity;BMP_temperature;BMP_pressure;BME280_temperature;BME280_humidity;BME280_pressure;Samples;Min_cycle;Max_cycle;Signal;HPM_P1;HPM_P2
2021/12/03 00:00:12;;;;;;;;;;;;;;;14.02;62.64;100668.97;1048399;28;762;-61
2021/12/03 00:01:02;;;;;;;;;;;;;;;14.01;62.37;100669.94;1047970;28;1120;-61
2021/12/03 00:01:52;;;;;;;;;;;;;;;14.02;62.07;100671.63;1048589;28;764;-61
2021/12/03 00:02:43;;;;;;;;;;;;;;;14.01;62.31;100675.28;1050184;28;745;-61
2021/12/03 00:03:33;;;;;;;;;;;;;;;14.02;62.51;100678.81;1048032;28;697;-61
2021/12/03 00:04:24;;;;;;;;;;;;;;;14.01;63.70;100679.81;1048104;28;634;-61
2021/12/03 00:05:14;;;;;;;;;;;;;;;14.00;62.30;100672.75;1048047;28;774;-61
2021/12/03 00:06:05;;;;;;;;;;;;;;;13.99;63.70;100666.53;1048256;28;769;-61
2021/12/03 00:06:55;;;;;;;;;;;;;;;13.98;62.06;100672.84;1052529;28;937;-61
2021/12/03 00:07:46;;;;;;;;;;;;;;;13.98;63.08;100672.84;1053632;28;704;-60
2021/12/03 00:08:36;;;;;;;;;;;;;;;13.98;62.17;100682.72;1049318;28;645;-61
2021/12/03 00:09:27;;;;;;;;;;;;;;;13.96;62.25;100674.00;1048147;28;1395;-60
2021/12/03 00:10:22;;;;;;;;;;;;;;;13.97;62.65;100681.06;1048054;28;610;-60
2021/12/03 00:11:13;;;;;;;;;;;;;;;13.96;63.10;100674.84;1047864;28;721;-61
2021/12/03 00:12:03;;;;;;;;;;;;;;;13.96;62.80;100669.47;1048136;28;890;-60
2021/12/03 00:12:54;;;;;;;;;;;;;;;13.96;63.24;100671.31;1048128;28;2006;-60
2021/12/03 00:13:44;;;;;;;;;;;;;;;13.95;62.73;100669.59;1048494;28;807;-61
2021/12/03 00:14:35;;;;;;;;;;;;;;;13.95;62.57;100665.09;1048820;28;772;-61
2021/12/03 00:15:25;;;;;;;;;;;;;;;13.94;62.39;100668.75;1048332;28;824;-61
2021/12/03 00:16:16;;;;;;;;;;;;;;;13.95;63.18;100670.47;1048646;28;619;-61
2021/12/03 00:17:06;;;;;;;;;;;;;;;13.95;63.02;100674.97;1049207;28;896;-61
2021/12/03 00:17:57;;;;;;;;;;;;;;;13.94;62.79;100674.13;1048794;28;689;-61
2021/12/03 00:18:47;;;;;;;;;;;;;;;13.93;62.24;100664.38;1048562;28;641;-62
2021/12/03 00:19:38;;;;;;;;;;;;;;;13.94;62.47;100667.91;1048536;28;689;-61
2021/12/03 00:20:28;;;;;;;;;;;;;;;13.93;62.98;100659.00;1048462;28;691;-61
2021/12/03 00:21:18;;;;;;;;;;;;;;;13.93;61.96;100663.53;1048649;28;824;-61
2021/12/03 00:22:09;;;;;;;;;;;;;;;13.92;63.00;100667.19;1048895;28;708;-62
2021/12/03 00:22:59;;;;;;;;;;;;;;;13.91;63.09;100669.00;1048498;28;761;-62
2021/12/03 00:23:50;;;;;;;;;;;;;;;13.90;63.32;100673.50;1048760;28;693;-62
2021/12/03 00:24:40;;;;;;;;;;;;;;;13.89;63.40;100670.94;1048430;28;619;-62
2021/12/03 00:25:31;;;;;;;;;;;;;;;13.89;63.21;100669.13;1049199;28;756;-62
2021/12/03 00:26:21;;;;;;;;;;;;;;;13.88;62.75;100670.09;1048530;28;633;-62
2021/12/03 00:27:12;;;;;;;;;;;;;;;13.87;62.37;100672.91;1049318;28;693;-62
2021/12/03 00:28:02;;;;;;;;;;;;;;;13.87;63.25;100672.91;1048499;28;741;-62
2021/12/03 00:28:52;;;;;;;;;;;;;;;13.86;62.54;100672.03;1048677;28;673;-62
2021/12/03 00:29:43;;;;;;;;;;;;;;;13.87;62.45;100670.22;1048359;28;1819;-61
2021/12/03 00:30:33;;;;;;;;;;;;;;;13.85;63.33;100673.03;1048557;28;633;-61
2021/12/03 00:31:24;;;;;;;;;;;;;;;13.85;62.89;100674.84;1045156;28;672;-61
2021/12/03 00:32:14;;;;;;;;;;;;;;;13.84;62.53;100670.47;1044326;28;794;-61
2021/12/03 00:33:04;;;;;;;;;;;;;;;13.85;62.51;100674.84;1043984;28;603;-61
2021/12/03 00:33:55;;;;;;;;;;;;;;;13.85;62.20;100667.66;1044132;28;709;-62
2021/12/03 00:34:45;;;;;;;;;;;;;;;13.83;63.44;100677.66;1044978;28;595;-62
2021/12/03 00:35:36;;;;;;;;;;;;;;;13.84;62.60;100674.00;1044030;28;681;-62
2021/12/03 00:36:28;;;;;;;;;;;;;;;13.83;63.05;100671.44;1045013;28;864;-62
2021/12/03 00:37:18;;;;;;;;;;;;;;;13.82;63.14;100667.06;1045077;28;642;-62
2021/12/03 00:38:09;;;;;;;;;;;;;;;13.81;62.85;100666.19;1043910;28;804;-61
2021/12/03 00:39:00;;;;;;;;;;;;;;;13.82;62.98;100672.41;1045011;28;669;-62
2021/12/03 00:39:50;;;;;;;;;;;;;;;13.81;62.20;100668.03;1044985;28;639;-61
2021/12/03 00:40:41;;;;;;;;;;;;;;;13.80;63.36;100666.31;1044973;28;705;-61
2021/12/03 00:41:35;;;;;;;;;;;;;;;13.80;63.20;100677.88;1044060;28;634;-60
2021/12/03 00:42:28;;;;;;;;;;;;;;;13.81;62.86;100679.59;1044979;28;1268;-62
2021/12/03 00:43:18;;;;;;;;;;;;;;;13.81;62.50;100684.94;1045021;28;746;-61
2021/12/03 00:44:09;;;;;;;;;;;;;;;13.80;63.49;100677.03;1044120;28;852;-61
2021/12/03 00:44:59;;;;;;;;;;;;;;;13.79;63.25;100680.72;1045082;28;689;-62
2021/12/03 00:45:51;;;;;;;;;;;;;;;13.79;63.12;100686.06;1045054;28;634;-62
2021/12/03 00:46:42;;;;;;;;;;;;;;;13.78;63.68;100679.00;1048349;28;1505;-62
2021/12/03 00:47:32;;;;;;;;;;;;;;;13.76;63.14;100676.47;1048568;28;811;-63
2021/12/03 00:48:22;;;;;;;;;;;;;;;13.78;63.24;100684.38;1048562;28;891;-63
2021/12/03 00:49:13;;;;;;;;;;;;;;;13.78;63.72;100684.38;1045651;28;1767;-63
2021/12/03 00:50:03;;;;;;;;;;;;;;;13.76;63.60;100675.59;1045532;28;630;-63
2021/12/03 00:50:54;;;;;;;;;;;;;;;13.76;62.67;100687.16;1049855;28;975;-63
2021/12/03 00:51:44;;;;;;;;;;;;;;;13.75;62.94;100679.25;1049180;28;971;-63
2021/12/03 00:52:35;;;;;;;;;;;;;;;13.76;63.00;100691.69;1049221;28;731;-63
2021/12/03 00:53:25;;;;;;;;;;;;;;;13.76;63.43;100691.69;1049856;28;696;-63
2021/12/03 00:54:15;;;;;;;;;;;;;;;13.75;63.01;100679.25;1049322;28;681;-63
2021/12/03 00:55:06;;;;;;;;;;;;;;;13.74;63.08;100683.75;1049331;28;1898;-62
2021/12/03 00:55:56;;;;;;;;;;;;;;;13.74;63.44;100683.75;1049239;28;678;-62
2021/12/03 00:56:47;;;;;;;;;;;;;;;13.74;62.86;100689.13;1048347;28;2274;-62
2021/12/03 00:57:37;;;;;;;;;;;;;;;13.75;62.91;100687.28;1050749;28;1881;-62
2021/12/03 00:58:27;;;;;;;;;;;;;;;13.74;62.69;100686.44;1048843;28;763;-61
2021/12/03 00:59:18;;;;;;;;;;;;;;;13.73;62.98;100679.38;1048937;28;745;-62
2021/12/03 01:00:08;;;;;;;;;;;;;;;13.73;63.24;100684.75;1048699;28;747;-62
2021/12/03 01:00:59;;;;;;;;;;;;;;;13.72;63.91;100684.84;1048809;28;971;-63
2021/12/03 01:01:49;;;;;;;;;;;;;;;13.73;62.65;100675.84;1049172;28;669;-63
2021/12/03 01:02:39;;;;;;;;;;;;;;;13.71;63.02;100678.66;1050854;28;1180;-63
2021/12/03 01:03:30;;;;;;;;;;;;;;;13.71;63.22;100672.44;1048791;28;761;-63
2021/12/03 01:04:20;;;;;;;;;;;;;;;13.72;62.65;100675.00;1045067;28;655;-64
2021/12/03 01:05:11;;;;;;;;;;;;;;;13.71;63.13;100680.47;1045705;28;875;-62
2021/12/03 01:06:01;;;;;;;;;;;;;;;13.70;62.71;100684.97;1045756;28;640;-62
2021/12/03 01:06:52;;;;;;;;;;;;;;;13.71;63.57;100672.44;1045041;28;705;-63
2021/12/03 01:07:42;;;;;;;;;;;;;;;13.69;63.04;100679.75;1046028;28;763;-61
2021/12/03 01:08:35;;;;;;;;;;;;;;;13.69;63.93;100685.94;1044529;28;827;-62
2021/12/03 01:09:26;;;;;;;;;;;;;;;13.69;62.46;100685.94;1045243;28;1549;-61
2021/12/03 01:10:16;;;;;;;;;;;;;;;13.70;63.12;100686.81;1045744;28;750;-63
2021/12/03 01:11:07;;;;;;;;;;;;;;;13.69;62.90;100683.28;1044654;28;701;-63
2021/12/03 01:11:57;;;;;;;;;;;;;;;13.68;63.45;100678.88;1044788;28;814;-63
2021/12/03 01:12:47;;;;;;;;;;;;;;;13.68;63.75;100678.03;1046135;28;1402;-63
2021/12/03 01:13:38;;;;;;;;;;;;;;;13.67;63.05;100682.53;1044569;28;786;-63
2021/12/03 01:14:28;;;;;;;;;;;;;;;13.66;63.72;100674.63;1045663;28;673;-62
2021/12/03 01:15:19;;;;;;;;;;;;;;;13.68;62.69;100683.41;1045680;28;1918;-61
2021/12/03 01:16:10;;;;;;;;;;;;;;;13.66;63.38;100679.97;1045650;28;716;-61
2021/12/03 01:17:00;;;;;;;;;;;;;;;13.66;63.23;100679.97;1044853;28;709;-61
2021/12/03 01:17:50;;;;;;;;;;;;;;;13.66;63.44;100679.97;1044505;28;736;-62
2021/12/03 01:18:41;;;;;;;;;;;;;;;13.66;63.86;100674.63;1047115;28;1825;-62
2021/12/03 01:19:31;;;;;;;;;;;;;;;13.65;62.98;100668.41;1048989;28;650;-62
2021/12/03 01:20:22;;;;;;;;;;;;;;;13.66;63.60;100679.97;1049256;28;651;-63
2021/12/03 01:21:14;;;;;;;;;;;;;;;13.65;63.46;100667.56;1049420;28;653;-63
2021/12/03 01:22:04;;;;;;;;;;;;;;;13.64;63.88;100666.72;1048489;28;876;-63
2021/12/03 01:22:55;;;;;;;;;;;;;;;13.64;62.74;100668.53;1048558;28;706;-64
2021/12/03 01:23:45;;;;;;;;;;;;;;;13.64;63.09;100660.50;1053201;28;713;-63
2021/12/03 01:24:35;;;;;;;;;;;;;;;13.63;63.86;100669.50;1054244;28;711;-63
2021/12/03 01:25:26;;;;;;;;;;;;;;;13.64;64.00;100663.19;1050157;28;647;-64
2021/12/03 01:26:16;;;;;;;;;;;;;;;13.63;63.94;100666.84;1049049;28;864;-63
2021/12/03 01:27:07;;;;;;;;;;;;;;;13.63;62.70;100667.69;1048741;28;627;-63
2021/12/03 01:27:59;;;;;;;;;;;;;;;13.61;63.93;100663.47;1048909;28;729;-62
2021/12/03 01:28:49;;;;;;;;;;;;;;;13.60;63.33;100661.75;1048464;28;891;-63
2021/12/03 01:29:40;;;;;;;;;;;;;;;13.61;63.14;100666.13;1050842;28;711;-63
2021/12/03 01:30:30;;;;;;;;;;;;;;;13.60;63.74;100662.59;1048345;28;879;-63
2021/12/03 01:31:20;;;;;;;;;;;;;;;13.58;63.35;100661.88;1048702;28;621;-62
2021/12/03 01:32:11;;;;;;;;;;;;;;;13.60;63.24;100664.44;1048680;28;795;-62
2021/12/03 01:33:01;;;;;;;;;;;;;;;13.58;63.88;100653.84;1048524;28;606;-63
2021/12/03 01:33:52;;;;;;;;;;;;;;;13.59;63.58;100668.09;1049059;28;669;-64
2021/12/03 01:34:42;;;;;;;;;;;;;;;13.59;63.21;100673.44;1050740;28;834;-64
2021/12/03 01:35:32;;;;;;;;;;;;;;;13.59;63.37;100665.41;1048522;28;662;-64
2021/12/03 01:36:23;;;;;;;;;;;;;;;13.58;63.51;100672.59;1048758;28;770;-64
2021/12/03 01:37:13;;;;;;;;;;;;;;;13.59;63.96;100665.41;1048523;28;693;-64
2021/12/03 01:38:04;;;;;;;;;;;;;;;13.58;63.31;100666.38;1048620;28;748;-63
2021/12/03 01:38:54;;;;;;;;;;;;;;;13.59;63.64;100665.41;1046106;28;1626;-63
2021/12/03 01:39:45;;;;;;;;;;;;;;;13.58;63.55;100671.72;1048533;28;638;-64
2021/12/03 01:40:35;;;;;;;;;;;;;;;13.58;63.93;100664.56;1048666;28;760;-63
2021/12/03 01:41:27;;;;;;;;;;;;;;;13.58;63.95;100666.38;1048497;28;813;-64
2021/12/03 01:42:18;;;;;;;;;;;;;;;13.58;62.78;100664.56;1048616;28;785;-64
2021/12/03 01:43:08;;;;;;;;;;;;;;;13.58;63.27;100667.22;1048655;28;696;-63
2021/12/03 01:44:02;;;;;;;;;;;;;;;13.56;63.06;100669.19;1048490;28;759;-63
2021/12/03 01:44:52;;;;;;;;;;;;;;;13.55;63.78;100665.66;1048866;28;803;-63
2021/12/03 01:45:43;;;;;;;;;;;;;;;13.55;64.06;100662.13;1050623;28;636;-63
2021/12/03 01:46:33;;;;;;;;;;;;;;;13.54;63.78;100666.63;1048352;28;1561;-63
2021/12/03 01:47:24;;;;;;;;;;;;;;;13.53;63.93;100670.28;1049057;28;803;-63
2021/12/03 01:48:14;;;;;;;;;;;;;;;13.54;63.60;100665.78;1049295;28;638;-63
2021/12/03 01:49:04;;;;;;;;;;;;;;;13.54;63.30;100661.25;1048966;28;766;-62
2021/12/03 01:49:55;;;;;;;;;;;;;;;13.54;63.65;100663.94;1049287;28;631;-63
2021/12/03 01:50:45;;;;;;;;;;;;;;;13.54;63.46;100665.78;1048950;28;673;-63
2021/12/03 01:51:36;;;;;;;;;;;;;;;13.52;63.18;100671.25;1049126;28;622;-62
2021/12/03 01:52:26;;;;;;;;;;;;;;;13.53;63.54;100661.38;1048904;28;984;-64
2021/12/03 01:53:16;;;;;;;;;;;;;;;13.52;62.99;100665.88;1049099;28;912;-62
2021/12/03 01:54:07;;;;;;;;;;;;;;;13.52;63.36;100663.22;1049232;28;793;-62
2021/12/03 01:54:59;;;;;;;;;;;;;;;13.52;63.57;100668.56;1049004;28;661;-62
2021/12/03 01:55:50;;;;;;;;;;;;;;;13.52;63.82;100668.56;1049105;28;709;-63
2021/12/03 01:56:40;;;;;;;;;;;;;;;13.52;63.80;100665.88;1050747;28;696;-62
2021/12/03 01:57:31;;;;;;;;;;;;;;;13.52;63.18;100673.91;1048927;28;945;-63
2021/12/03 01:58:21;;;;;;;;;;;;;;;13.50;63.71;100670.50;1049317;28;606;-63
2021/12/03 01:59:11;;;;;;;;;;;;;;;13.52;63.10;100673.06;1049061;28;673;-63
2021/12/03 02:00:02;;;;;;;;;;;;;;;13.51;63.48;100674.88;1049209;28;645;-64
2021/12/03 02:00:53;;;;;;;;;;;;;;;13.50;62.85;100675.00;1045805;28;755;-63
2021/12/03 02:01:44;;;;;;;;;;;;;;;13.50;63.42;100681.22;1046936;28;773;-63
2021/12/03 02:02:34;;;;;;;;;;;;;;;13.49;63.55;100673.31;1044412;28;1208;-63
2021/12/03 02:03:24;;;;;;;;;;;;;;;13.49;63.25;100668.81;1044293;28;802;-63
2021/12/03 02:04:15;;;;;;;;;;;;;;;13.48;63.42;100667.09;1044373;28;879;-63
2021/12/03 02:05:05;;;;;;;;;;;;;;;13.47;63.33;100668.06;1044209;28;670;-63
2021/12/03 02:05:56;;;;;;;;;;;;;;;13.46;63.56;100666.38;1044423;28;833;-63
2021/12/03 02:06:46;;;;;;;;;;;;;;;13.47;63.15;100670.75;1044562;28;681;-62
2021/12/03 02:07:36;;;;;;;;;;;;;;;13.47;64.16;100669.91;1044130;28;792;-62
2021/12/03 02:08:28;;;;;;;;;;;;;;;13.46;64.02;100660.16;1044764;28;1131;-63
2021/12/03 02:09:18;;;;;;;;;;;;;;;13.47;63.47;100667.22;1044697;28;1142;-63
2021/12/03 02:10:09;;;;;;;;;;;;;;;13.47;63.96;100665.41;1044355;28;918;-63
2021/12/03 02:10:59;;;;;;;;;;;;;;;13.45;63.17;100661.97;1044539;28;722;-62
2021/12/03 02:11:49;;;;;;;;;;;;;;;13.47;63.38;100664.53;1044184;28;744;-63
2021/12/03 02:12:40;;;;;;;;;;;;;;;13.46;63.85;100663.69;1046342;28;1384;-62
2021/12/03 02:13:30;;;;;;;;;;;;;;;13.46;63.80;100663.69;1044109;28;644;-61
2021/12/03 02:14:21;;;;;;;;;;;;;;;13.46;63.61;100658.34;1044408;28;720;-61
2021/12/03 02:15:11;;;;;;;;;;;;;;;13.47;63.25;100664.53;1044510;28;1985;-62
2021/12/03 02:16:02;;;;;;;;;;;;;;;13.46;63.13;100652.13;1044176;28;927;-62
2021/12/03 02:16:52;;;;;;;;;;;;;;;13.45;63.92;100656.63;1044807;28;689;-62
2021/12/03 02:17:42;;;;;;;;;;;;;;;13.45;63.49;100653.09;1046382;28;671;-62
2021/12/03 02:18:33;;;;;;;;;;;;;;;13.44;64.16;100646.03;1045979;28;1865;-62
2021/12/03 02:19:23;;;;;;;;;;;;;;;13.43;63.23;100647.91;1049484;28;865;-62
2021/12/03 02:20:14;;;;;;;;;;;;;;;13.44;63.33;100648.72;1048925;28;877;-62
2021/12/03 02:21:04;;;;;;;;;;;;;;;13.43;63.59;100647.06;1049138;28;749;-62
2021/12/03 02:21:54;;;;;;;;;;;;;;;13.43;63.17;100652.41;1048399;28;753;-62
2021/12/03 02:22:45;;;;;;;;;;;;;;;13.43;64.00;100652.41;1048937;28;708;-61
2021/12/03 02:23:35;;;;;;;;;;;;;;;13.43;64.07;100653.25;1048027;28;1900;-63
2021/12/03 02:24:26;;;;;;;;;;;;;;;13.43;63.93;100652.41;1048460;28;799;-61
2021/12/03 02:25:16;;;;;;;;;;;;;;;13.42;63.34;100654.22;1048172;28;671;-63
2021/12/03 02:26:07;;;;;;;;;;;;;;;13.42;63.24;100651.56;1048469;28;631;-63
2021/12/03 02:26:57;;;;;;;;;;;;;;;13.42;63.43;100653.38;1048551;28;1993;-64
2021/12/03 02:27:48;;;;;;;;;;;;;;;13.42;63.86;100650.69;1048787;28;1359;-64
2021/12/03 02:28:38;;;;;;;;;;;;;;;13.42;63.31;100654.22;1048971;28;753;-64
2021/12/03 02:29:30;;;;;;;;;;;;;;;13.41;63.81;100655.19;1048887;28;674;-64
2021/12/03 02:30:20;;;;;;;;;;;;;;;13.41;63.42;100654.34;1048561;28;826;-65
2021/12/03 02:31:10;;;;;;;;;;;;;;;13.42;63.34;100653.38;1048310;28;689;-65
2021/12/03 02:32:01;;;;;;;;;;;;;;;13.43;63.14;100647.06;1048560;28;701;-65
2021/12/03 02:32:52;;;;;;;;;;;;;;;13.43;63.88;100649.72;1048566;28;799;-64
2021/12/03 02:33:42;;;;;;;;;;;;;;;13.40;63.51;100649.97;1050584;28;846;-65
2021/12/03 02:34:34;;;;;;;;;;;;;;;13.40;63.72;100648.13;1048329;28;603;-65
2021/12/03 02:35:24;;;;;;;;;;;;;;;13.40;64.21;100641.94;1048514;28;1882;-65
2021/12/03 02:36:15;;;;;;;;;;;;;;;13.39;63.69;100641.09;1048064;28;1824;-65
2021/12/03 02:37:05;;;;;;;;;;;;;;;13.39;63.62;100643.75;1048948;28;862;-65
2021/12/03 02:37:55;;;;;;;;;;;;;;;13.39;63.78;100633.06;1048792;28;736;-65
2021/12/03 02:38:46;;;;;;;;;;;;;;;13.38;63.93;100634.03;1048857;28;751;-64
2021/12/03 02:39:36;;;;;;;;;;;;;;;13.38;63.43;100639.38;1049006;28;642;-64
2021/12/03 02:40:27;;;;;;;;;;;;;;;13.38;64.08;100635.84;1048826;28;753;-64
2021/12/03 02:41:17;;;;;;;;;;;;;;;13.36;63.97;100635.97;1049031;28;856;-65
2021/12/03 02:42:07;;;;;;;;;;;;;;;13.37;63.84;100635.00;1045640;28;821;-61
2021/12/03 02:42:58;;;;;;;;;;;;;;;13.37;64.15;100637.66;1045758;28;665;-61
2021/12/03 02:43:48;;;;;;;;;;;;;;;13.37;63.36;100643.03;1049942;28;732;-63
2021/12/03 02:44:39;;;;;;;;;;;;;;;13.37;64.29;100642.19;1048765;28;1930;-63
2021/12/03 02:45:29;;;;;;;;;;;;;;;13.36;64.10;100640.47;1048433;28;864;-63
2021/12/03 02:46:19;;;;;;;;;;;;;;;13.36;63.95;100641.31;1048725;28;1461;-63
2021/12/03 02:47:10;;;;;;;;;;;;;;;13.37;64.35;100640.34;1048928;28;701;-63
2021/12/03 02:48:00;;;;;;;;;;;;;;;13.37;63.12;100640.34;1050046;28;769;-62
2021/12/03 02:48:51;;;;;;;;;;;;;;;13.37;63.43;100640.34;1048973;28;701;-62
2021/12/03 02:49:41;;;;;;;;;;;;;;;13.36;64.14;100638.66;1049379;28;699;-63
2021/12/03 02:50:31;;;;;;;;;;;;;;;13.37;63.40;100632.31;1048757;28;640;-63
2021/12/03 02:51:22;;;;;;;;;;;;;;;13.37;63.50;100636.81;1048930;28;727;-63
2021/12/03 02:52:12;;;;;;;;;;;;;;;13.37;63.10;100635.00;1048795;28;678;-62
2021/12/03 02:53:03;;;;;;;;;;;;;;;13.36;63.96;100629.75;1048796;28;740;-62
2021/12/03 02:53:53;;;;;;;;;;;;;;;13.36;64.24;100635.13;1049265;28;851;-62
2021/12/03 02:54:43;;;;;;;;;;;;;;;13.35;63.10;100634.25;1049385;28;693;-63
2021/12/03 02:55:34;;;;;;;;;;;;;;;13.36;63.41;100632.44;1048929;28;740;-62
2021/12/03 02:56:24;;;;;;;;;;;;;;;13.34;64.10;100632.56;1045230;28;643;-63
2021/12/03 02:57:15;;;;;;;;;;;;;;;13.35;63.59;100628.06;1044178;28;739;-63
2021/12/03 02:58:05;;;;;;;;;;;;;;;13.35;63.40;100631.59;1044238;28;873;-63
2021/12/03 02:58:55;;;;;;;;;;;;;;;13.34;63.23;100631.72;1044228;28;866;-63
2021/12/03 02:59:46;;;;;;;;;;;;;;;13.33;63.65;100625.50;1044180;28;765;-63
2021/12/03 03:00:36;;;;;;;;;;;;;;;13.32;63.88;100628.31;1044066;28;711;-63
2021/12/03 03:01:27;;;;;;;;;;;;;;;13.34;63.22;100629.88;1044228;28;702;-63
2021/12/03 03:02:17;;;;;;;;;;;;;;;13.32;63.64;100636.31;1044357;28;840;-63
2021/12/03 03:03:08;;;;;;;;;;;;;;;13.32;63.81;100628.31;1044154;28;729;-63
2021/12/03 03:03:58;;;;;;;;;;;;;;;13.33;63.28;100630.84;1044349;28;913;-63
2021/12/03 03:04:48;;;;;;;;;;;;;;;13.32;63.37;100626.47;1043922;28;769;-63
2021/12/03 03:05:39;;;;;;;;;;;;;;;13.30;64.10;100631.09;1045234;28;807;-63
2021/12/03 03:06:30;;;;;;;;;;;;;;;13.31;63.83;100624.78;1044212;28;963;-63
2021/12/03 03:07:20;;;;;;;;;;;;;;;13.31;63.84;100616.75;1044389;28;654;-63
2021/12/03 03:08:11;;;;;;;;;;;;;;;13.31;64.01;100627.44;1044155;28;847;-63
2021/12/03 03:09:03;;;;;;;;;;;;;;;13.31;64.11;100624.78;1044416;28;669;-63
2021/12/03 03:09:53;;;;;;;;;;;;;;;13.30;63.82;100630.25;1044598;28;724;-64
2021/12/03 03:10:43;;;;;;;;;;;;;;;13.30;63.95;100631.09;1046272;28;675;-63
2021/12/03 03:11:34;;;;;;;;;;;;;;;13.29;64.30;100624.03;1044632;28;692;-63
2021/12/03 03:12:24;;;;;;;;;;;;;;;13.30;63.01;100631.09;1045673;28;927;-63
2021/12/03 03:13:15;;;;;;;;;;;;;;;13.30;63.67;100627.56;1045375;28;811;-63
2021/12/03 03:14:05;;;;;;;;;;;;;;;13.29;63.25;100626.72;1045852;28;669;-64
2021/12/03 03:14:56;;;;;;;;;;;;;;;13.29;63.39;100624.03;1045838;28;646;-64
2021/12/03 03:15:46;;;;;;;;;;;;;;;13.29;64.02;100628.53;1047587;28;1904;-64
2021/12/03 03:16:36;;;;;;;;;;;;;;;13.28;63.61;100625.00;1048577;28;812;-64
2021/12/03 03:17:27;;;;;;;;;;;;;;;13.29;64.17;100631.22;1048869;28;651;-63
2021/12/03 03:18:17;;;;;;;;;;;;;;;13.30;63.80;100630.25;1048859;28;701;-64
2021/12/03 03:19:08;;;;;;;;;;;;;;;13.29;63.73;100629.38;1048153;28;642;-64
2021/12/03 03:19:58;;;;;;;;;;;;;;;13.29;64.17;100626.72;1048976;28;689;-64
2021/12/03 03:20:48;;;;;;;;;;;;;;;13.28;63.61;100622.34;1048552;28;805;-63
2021/12/03 03:21:39;;;;;;;;;;;;;;;13.27;63.50;100628.66;1048698;28;734;-63
2021/12/03 03:22:29;;;;;;;;;;;;;;;13.27;63.54;100628.66;1048644;28;851;-63
2021/12/03 03:23:20;;;;;;;;;;;;;;;13.27;63.13;100630.47;1048753;28;643;-63
2021/12/03 03:24:10;;;;;;;;;;;;;;;13.28;63.85;100626.84;1048942;28;685;-63
2021/12/03 03:25:01;;;;;;;;;;;;;;;13.28;63.65;100630.38;1048644;28;902;-63
2021/12/03 03:25:51;;;;;;;;;;;;;;;13.27;63.30;100627.81;1048816;28;685;-62
2021/12/03 03:26:41;;;;;;;;;;;;;;;13.26;63.78;100632.31;1048591;28;642;-62
2021/12/03 03:27:32;;;;;;;;;;;;;;;13.25;63.27;100627.97;1048632;28;1066;-61
2021/12/03 03:28:22;;;;;;;;;;;;;;;13.25;64.17;100625.28;1048966;28;652;-62
2021/12/03 03:29:13;;;;;;;;;;;;;;;13.26;63.47;100618.06;1049297;28;946;-62
2021/12/03 03:30:03;;;;;;;;;;;;;;;13.26;64.24;100613.56;1048913;28;681;-61
2021/12/03 03:30:54;;;;;;;;;;;;;;;13.25;63.92;100617.25;1048499;28;2040;-62
2021/12/03 03:31:44;;;;;;;;;;;;;;;13.24;63.48;100612.88;1048367;28;653;-62
2021/12/03 03:32:35;;;;;;;;;;;;;;;13.24;64.03;100610.19;1048167;28;1892;-61
2021/12/03 03:33:25;;;;;;;;;;;;;;;13.23;63.57;100603.13;1048676;28;881;-62
2021/12/03 03:34:15;;;;;;;;;;;;;;;13.23;64.04;100613.84;1048719;28;697;-62
2021/12/03 03:35:06;;;;;;;;;;;;;;;13.24;64.04;100607.53;1048898;28;1894;-62
2021/12/03 03:35:56;;;;;;;;;;;;;;;13.23;64.11;100603.13;1048655;28;660;-62
2021/12/03 03:36:47;;;;;;;;;;;;;;;13.25;63.34;100605.69;1048134;28;650;-62
2021/12/03 03:37:37;;;;;;;;;;;;;;;13.24;63.95;100602.16;1048258;28;725;-62
2021/12/03 03:38:27;;;;;;;;;;;;;;;13.24;63.18;100604.84;1047920;28;752;-62
2021/12/03 03:39:19;;;;;;;;;;;;;;;13.23;64.07;100604.97;1048348;28;742;-61
2021/12/03 03:40:10;;;;;;;;;;;;;;;13.22;64.31;100600.59;1048299;28;728;-62
2021/12/03 03:41:00;;;;;;;;;;;;;;;13.23;64.12;100600.47;1048150;28;625;-62
2021/12/03 03:41:51;;;;;;;;;;;;;;;13.22;63.42;100593.41;1048215;28;794;-62
2021/12/03 03:42:41;;;;;;;;;;;;;;;13.22;63.78;100590.72;1050110;28;1141;-62
2021/12/03 03:43:32;;;;;;;;;;;;;;;13.21;63.33;100583.69;1047989;28;731;-61
2021/12/03 03:44:22;;;;;;;;;;;;;;;13.20;63.30;100581.97;1048398;28;650;-61
2021/12/03 03:45:13;;;;;;;;;;;;;;;13.20;64.15;100581.97;1047932;28;713;-62
2021/12/03 03:46:03;;;;;;;;;;;;;;;13.20;64.13;100587.31;1047978;28;909;-61
2021/12/03 03:46:54;;;;;;;;;;;;;;;13.20;63.70;100581.97;1044687;28;634;-61
2021/12/03 03:47:45;;;;;;;;;;;;;;;13.21;63.27;100589.03;1045727;28;773;-61
2021/12/03 03:48:35;;;;;;;;;;;;;;;13.22;63.75;100584.53;1046253;28;727;-61
2021/12/03 03:49:25;;;;;;;;;;;;;;;13.22;63.33;100585.38;1045427;28;689;-61
2021/12/03 03:50:16;;;;;;;;;;;;;;;13.20;63.42;100585.50;1049591;28;891;-61
2021/12/03 03:51:06;;;;;;;;;;;;;;;13.21;63.65;100578.31;1050147;28;804;-61
2021/12/03 03:51:57;;;;;;;;;;;;;;;13.21;63.77;100586.34;1046502;28;712;-62
2021/12/03 03:52:47;;;;;;;;;;;;;;;13.20;63.32;100573.94;1046339;28;2121;-62
2021/12/03 03:53:39;;;;;;;;;;;;;;;13.19;64.03;100578.44;1048620;28;661;-62
2021/12/03 03:54:29;;;;;;;;;;;;;;;13.19;63.04;100572.25;1049221;28;999;-62
2021/12/03 03:55:19;;;;;;;;;;;;;;;13.19;64.06;100580.28;1048490;28;1956;-61
2021/12/03 03:56:10;;;;;;;;;;;;;;;13.18;63.46;100576.75;1048114;28;957;-61
2021/12/03 03:57:00;;;;;;;;;;;;;;;13.19;63.75;100580.28;1048406;28;653;-62
2021/12/03 03:57:51;;;;;;;;;;;;;;;13.19;63.49;100580.28;1047984;28;1035;-62
2021/12/03 03:58:41;;;;;;;;;;;;;;;13.18;63.59;100584.78;1050145;28;774;-63
2021/12/03 03:59:31;;;;;;;;;;;;;;;13.18;63.26;100576.75;1052492;28;693;-63
2021/12/03 04:00:22;;;;;;;;;;;;;;;13.17;63.46;100590.25;1053819;28;772;-62
2021/12/03 04:01:12;;;;;;;;;;;;;;;13.17;63.83;100583.06;1049448;28;767;-62
2021/12/03 04:02:03;;;;;;;;;;;;;;;13.17;63.96;100579.53;1048219;28;652;-62
2021/12/03 04:02:53;;;;;;;;;;;;;;;13.16;63.71;100577.84;1048717;28;750;-61
2021/12/03 04:03:46;;;;;;;;;;;;;;;13.16;63.36;100580.50;1050301;28;681;-61
2021/12/03 04:04:36;;;;;;;;;;;;;;;13.16;64.10;100575.16;1048301;28;794;-61
2021/12/03 04:05:27;;;;;;;;;;;;;;;13.17;64.07;100576.84;1048168;28;685;-62
2021/12/03 04:06:17;;;;;;;;;;;;;;;13.18;64.03;100573.22;1048336;28;687;-62
2021/12/03 04:07:07;;;;;;;;;;;;;;;13.16;64.06;100580.50;1048074;28;681;-62
2021/12/03 04:07:58;;;;;;;;;;;;;;;13.17;63.10;100579.53;1049253;28;652;-63
2021/12/03 04:08:48;;;;;;;;;;;;;;;13.16;63.85;100575.16;1048299;28;743;-62
2021/12/03 04:09:39;;;;;;;;;;;;;;;13.15;64.13;100581.47;1045987;28;1240;-63
2021/12/03 04:10:29;;;;;;;;;;;;;;;13.16;63.79;100575.16;1049400;28;692;-63
2021/12/03 04:11:20;;;;;;;;;;;;;;;13.15;63.32;100576.97;1049308;28;765;-63
2021/12/03 04:12:10;;;;;;;;;;;;;;;13.15;63.68;100571.63;1049349;28;720;-63
2021/12/03 04:13:01;;;;;;;;;;;;;;;13.14;63.48;100580.59;1045523;28;792;-62
2021/12/03 04:13:51;;;;;;;;;;;;;;;13.16;63.56;100580.50;1045090;28;732;-61
2021/12/03 04:14:41;;;;;;;;;;;;;;;13.14;63.42;100571.72;1045483;28;619;-63
2021/12/03 04:15:32;;;;;;;;;;;;;;;13.13;63.19;100586.91;1045535;28;1961;-61
2021/12/03 04:16:22;;;;;;;;;;;;;;;13.13;63.71;100586.06;1045426;28;684;-62
2021/12/03 04:17:13;;;;;;;;;;;;;;;13.13;63.29;100580.72;1045536;28;867;-62
2021/12/03 04:18:03;;;;;;;;;;;;;;;13.14;63.55;100585.09;1045791;28;669;-63
2021/12/03 04:18:53;;;;;;;;;;;;;;;13.14;63.34;100582.41;1045006;28;728;-62
2021/12/03 04:19:44;;;;;;;;;;;;;;;13.13;63.13;100586.06;1046199;28;610;-61
2021/12/03 04:20:34;;;;;;;;;;;;;;;13.12;63.72;100573.66;1046199;28;655;-63
2021/12/03 04:21:25;;;;;;;;;;;;;;;13.12;64.10;100574.50;1046185;28;669;-62
2021/12/03 04:22:18;;;;;;;;;;;;;;;13.12;63.95;100574.50;1045138;28;695;-62
2021/12/03 04:23:08;;;;;;;;;;;;;;;13.12;64.04;100569.16;1046046;28;712;-62
2021/12/03 04:23:59;;;;;;;;;;;;;;;13.12;63.87;100576.34;1040876;28;634;-62
2021/12/03 04:24:49;;;;;;;;;;;;;;;13.11;63.64;100575.47;1042571;28;681;-62
2021/12/03 04:25:39;;;;;;;;;;;;;;;13.12;64.27;100569.16;1044657;28;930;-62